In Rescue
 
Open Full Screen Window  High Contrast Mode
Wind Gusting 18 knots
10
July 13, 2020 11:34 PM CDT
Weather Information
Wind Direction
  130 °
Wind Speed
  10 kt (12 mph)
Wind Gust
  18 kt (21 mph)
Variable Wind
110°
170°
Altimeter
29.86 in
Visibility
10 SM
Temperature
23° C
73° F
Dewpoint
18° C
64° F
Humidity
74%
1hr Rain Fall
00.00 in.
24hr Rain Fall
00.00 in.
Sky Condition
Clear
VFR

METAR K9MN 140434Z AUTO 13010G18KT 110V170 10SM CLR 23/18 A2986 RMK AO1 T02290178

FAA Disclaimer: The data displayed is for advisory purposes only and is not to be used for flight planning or operations.